sensor_id;sensor_type;location;lat;lon;timestamp;pressure;altitude;pressure_sealevel;temperature;humidity
43701;BME280;58809;47.984;7.964;2022-11-24T00:01:11;96663.25;;;7.79;100.00
43701;BME280;58809;47.984;7.964;2022-11-24T00:04:15;96648.81;;;7.75;100.00
43701;BME280;58809;47.984;7.964;2022-11-24T00:07:17;96648.53;;;7.70;100.00
43701;BME280;58809;47.984;7.964;2022-11-24T00:10:19;96661.41;;;7.65;100.00
43701;BME280;58809;47.984;7.964;2022-11-24T00:13:20;96657.59;;;7.67;100.00
43701;BME280;58809;47.984;7.964;2022-11-24T00:16:28;96660.28;;;7.59;100.00
43701;BME280;58809;47.984;7.964;2022-11-24T00:19:30;96650.63;;;7.51;100.00
43701;BME280;58809;47.984;7.964;2022-11-24T00:22:31;96658.88;;;7.48;100.00
43701;BME280;58809;47.984;7.964;2022-11-24T00:25:33;96660.06;;;7.46;100.00
43701;BME280;58809;47.984;7.964;2022-11-24T00:28:35;96640.63;;;7.47;100.00
43701;BME280;58809;47.984;7.964;2022-11-24T00:31:39;96684.63;;;7.61;100.00
43701;BME280;58809;47.984;7.964;2022-11-24T00:34:41;96695.03;;;7.78;100.00
43701;BME280;58809;47.984;7.964;2022-11-24T00:37:43;96671.81;;;7.81;100.00
43701;BME280;58809;47.984;7.964;2022-11-24T00:40:44;96692.84;;;7.89;100.00
43701;BME280;58809;47.984;7.964;2022-11-24T00:43:46;96691.94;;;7.97;100.00
43701;BME280;58809;47.984;7.964;2022-11-24T00:46:47;96693.09;;;7.95;100.00
43701;BME280;58809;47.984;7.964;2022-11-24T00:49:49;96688.03;;;7.93;100.00
43701;BME280;58809;47.984;7.964;2022-11-24T00:52:51;96692.13;;;7.96;100.00
43701;BME280;58809;47.984;7.964;2022-11-24T00:55:53;96696.38;;;7.97;100.00
43701;BME280;58809;47.984;7.964;2022-11-24T00:58:55;96704.47;;;7.95;100.00
43701;BME280;58809;47.984;7.964;2022-11-24T01:01:56;96710.56;;;7.96;100.00
43701;BME280;58809;47.984;7.964;2022-11-24T01:04:58;96713.19;;;7.96;100.00
43701;BME280;58809;47.984;7.964;2022-11-24T01:08:00;96715.47;;;7.99;100.00
43701;BME280;58809;47.984;7.964;2022-11-24T01:11:20;96707.19;;;8.02;100.00
43701;BME280;58809;47.984;7.964;2022-11-24T01:14:22;96709.97;;;8.08;100.00
43701;BME280;58809;47.984;7.964;2022-11-24T01:17:25;96718.22;;;8.05;100.00
43701;BME280;58809;47.984;7.964;2022-11-24T01:20:27;96713.56;;;8.07;100.00
43701;BME280;58809;47.984;7.964;2022-11-24T01:23:28;96726.59;;;8.09;100.00
43701;BME280;58809;47.984;7.964;2022-11-24T01:26:30;96718.22;;;8.05;100.00
43701;BME280;58809;47.984;7.964;2022-11-24T01:29:32;96729.84;;;8.11;100.00
43701;BME280;58809;47.984;7.964;2022-11-24T01:32:34;96716.22;;;8.07;100.00
43701;BME280;58809;47.984;7.964;2022-11-24T01:35:36;96727.84;;;8.13;100.00
43701;BME280;58809;47.984;7.964;2022-11-24T01:38:38;96738.22;;;8.15;100.00
43701;BME280;58809;47.984;7.964;2022-11-24T01:41:40;96749.63;;;8.15;100.00
43701;BME280;58809;47.984;7.964;2022-11-24T01:44:41;96740.69;;;8.16;100.00
43701;BME280;58809;47.984;7.964;2022-11-24T01:47:43;96747.97;;;8.14;100.00
43701;BME280;58809;47.984;7.964;2022-11-24T01:50:47;96749.63;;;8.15;100.00
43701;BME280;58809;47.984;7.964;2022-11-24T01:54:02;96754.03;;;8.15;100.00
43701;BME280;58809;47.984;7.964;2022-11-24T01:57:24;96772.66;;;8.13;100.00
43701;BME280;58809;47.984;7.964;2022-11-24T02:00:26;96742.69;;;8.14;100.00
43701;BME280;58809;47.984;7.964;2022-11-24T02:03:31;96754.22;;;8.13;100.00
43701;BME280;58809;47.984;7.964;2022-11-24T02:06:35;96742.69;;;8.14;100.00
43701;BME280;58809;47.984;7.964;2022-11-24T02:09:42;96749.16;;;8.12;99.78
43701;BME280;58809;47.984;7.964;2022-11-24T02:12:47;96745.66;;;8.11;99.63
43701;BME280;58809;47.984;7.964;2022-11-24T02:15:51;96761.94;;;8.15;100.00
43701;BME280;58809;47.984;7.964;2022-11-24T02:18:53;96758.19;;;8.09;100.00
43701;BME280;58809;47.984;7.964;2022-11-24T02:21:55;96758.28;;;8.01;100.00
43701;BME280;58809;47.984;7.964;2022-11-24T02:25:22;96741.88;;;7.90;100.00
43701;BME280;58809;47.984;7.964;2022-11-24T02:28:28;96733.41;;;7.80;100.00
43701;BME280;58809;47.984;7.964;2022-11-24T02:31:33;96720.59;;;7.69;100.00
43701;BME280;58809;47.984;7.964;2022-11-24T02:34:34;96720.13;;;7.65;100.00
43701;BME280;58809;47.984;7.964;2022-11-24T02:37:37;96713.75;;;7.60;100.00
43701;BME280;58809;47.984;7.964;2022-11-24T02:40:40;96720.19;;;7.57;99.90
43701;BME280;58809;47.984;7.964;2022-11-24T02:43:58;96724.66;;;7.57;99.31
43701;BME280;58809;47.984;7.964;2022-11-24T02:47:05;96721.78;;;7.66;96.82
43701;BME280;58809;47.984;7.964;2022-11-24T02:50:07;96719.50;;;7.63;95.95
43701;BME280;58809;47.984;7.964;2022-11-24T02:53:09;96730.72;;;7.57;96.51
43701;BME280;58809;47.984;7.964;2022-11-24T02:56:10;96716.78;;;7.48;97.25
43701;BME280;58809;47.984;7.964;2022-11-24T02:59:13;96724.59;;;7.33;98.23
43701;BME280;58809;47.984;7.964;2022-11-24T03:02:14;96740.63;;;7.24;100.00
43701;BME280;58809;47.984;7.964;2022-11-24T03:05:16;96739.66;;;7.17;100.00
43701;BME280;58809;47.984;7.964;2022-11-24T03:08:18;96746.34;;;7.27;100.00
43701;BME280;58809;47.984;7.964;2022-11-24T03:11:19;96758.66;;;7.35;100.00
43701;BME280;58809;47.984;7.964;2022-11-24T03:14:21;96751.72;;;7.34;100.00
43701;BME280;58809;47.984;7.964;2022-11-24T03:17:23;96755.97;;;7.43;100.00
43701;BME280;58809;47.984;7.964;2022-11-24T03:20:25;96770.25;;;7.49;99.96
43701;BME280;58809;47.984;7.964;2022-11-24T03:23:26;96775.03;;;7.54;100.00
43701;BME280;58809;47.984;7.964;2022-11-24T03:26:28;96796.22;;;7.60;99.14
43701;BME280;58809;47.984;7.964;2022-11-24T03:29:29;96780.50;;;7.75;97.86
43701;BME280;58809;47.984;7.964;2022-11-24T03:32:31;96801.50;;;7.83;96.97
43701;BME280;58809;47.984;7.964;2022-11-24T03:35:33;96790.50;;;7.80;96.86
43701;BME280;58809;47.984;7.964;2022-11-24T03:38:34;96774.88;;;7.78;96.01
43701;BME280;58809;47.984;7.964;2022-11-24T03:41:36;96797.72;;;7.86;96.10
43701;BME280;58809;47.984;7.964;2022-11-24T03:44:38;96790.66;;;7.78;96.70
43701;BME280;58809;47.984;7.964;2022-11-24T03:47:39;96783.13;;;7.75;96.95
43701;BME280;58809;47.984;7.964;2022-11-24T03:50:41;96783.13;;;7.75;97.21
43701;BME280;58809;47.984;7.964;2022-11-24T03:53:43;96783.63;;;7.70;98.34
43701;BME280;58809;47.984;7.964;2022-11-24T03:56:44;96796.97;;;7.69;98.44
43701;BME280;58809;47.984;7.964;2022-11-24T03:59:46;96781.66;;;7.72;97.88
43701;BME280;58809;47.984;7.964;2022-11-24T04:02:48;96789.69;;;7.79;96.92
43701;BME280;58809;47.984;7.964;2022-11-24T04:05:50;96796.25;;;7.83;96.53
43701;BME280;58809;47.984;7.964;2022-11-24T04:08:52;96792.97;;;7.81;96.66
43701;BME280;58809;47.984;7.964;2022-11-24T04:11:53;96794.56;;;7.90;96.84
43701;BME280;58809;47.984;7.964;2022-11-24T04:15:16;96801.31;;;7.93;97.09
43701;BME280;58809;47.984;7.964;2022-11-24T04:18:18;96793.84;;;7.97;97.60
43701;BME280;58809;47.984;7.964;2022-11-24T04:21:20;96807.31;;;8.02;97.09
43701;BME280;58809;47.984;7.964;2022-11-24T04:24:22;96811.63;;;8.03;97.86
43701;BME280;58809;47.984;7.964;2022-11-24T04:27:23;96809.31;;;8.00;98.03
43701;BME280;58809;47.984;7.964;2022-11-24T04:30:26;96813.78;;;7.99;99.25
43701;BME280;58809;47.984;7.964;2022-11-24T04:33:28;96825.31;;;7.98;99.67
43701;BME280;58809;47.984;7.964;2022-11-24T04:36:30;96821.03;;;7.97;100.00
43701;BME280;58809;47.984;7.964;2022-11-24T04:39:31;96836.38;;;7.94;100.00
43701;BME280;58809;47.984;7.964;2022-11-24T04:42:33;96820.91;;;7.90;100.00
43701;BME280;58809;47.984;7.964;2022-11-24T04:45:35;96831.31;;;7.84;100.00
43701;BME280;58809;47.984;7.964;2022-11-24T04:48:36;96799.69;;;7.84;100.00
43701;BME280;58809;47.984;7.964;2022-11-24T04:51:38;96806.78;;;7.83;100.00
43701;BME280;58809;47.984;7.964;2022-11-24T04:54:40;96814.19;;;7.88;100.00
43701;BME280;58809;47.984;7.964;2022-11-24T04:57:42;96833.09;;;7.92;100.00
43701;BME280;58809;47.984;7.964;2022-11-24T05:00:43;96826.47;;;7.96;100.00
43701;BME280;58809;47.984;7.964;2022-11-24T05:03:45;96828.94;;;7.97;100.00
43701;BME280;58809;47.984;7.964;2022-11-24T05:06:47;96835.38;;;7.95;100.00
43701;BME280;58809;47.984;7.964;2022-11-24T05:09:48;96833.69;;;8.02;100.00
43701;BME280;58809;47.984;7.964;2022-11-24T05:13:10;96833.16;;;8.06;100.00
43701;BME280;58809;47.984;7.964;2022-11-24T05:16:12;96827.53;;;8.09;100.00
43701;BME280;58809;47.984;7.964;2022-11-24T05:19:14;96843.72;;;8.06;100.00
43701;BME280;58809;47.984;7.964;2022-11-24T05:22:15;96838.75;;;8.12;100.00
43701;BME280;58809;47.984;7.964;2022-11-24T05:25:17;96832.00;;;8.09;100.00
43701;BME280;58809;47.984;7.964;2022-11-24T05:28:19;96835.00;;;8.06;100.00
43701;BME280;58809;47.984;7.964;2022-11-24T05:31:20;96828.06;;;8.05;100.00
43701;BME280;58809;47.984;7.964;2022-11-24T05:34:22;96833.81;;;8.08;96.49
43701;BME280;58809;47.984;7.964;2022-11-24T05:37:24;96833.66;;;8.10;93.61
43701;BME280;58809;47.984;7.964;2022-11-24T05:40:26;96838.38;;;8.15;90.71
43701;BME280;58809;47.984;7.964;2022-11-24T05:43:27;96835.88;;;8.21;90.66
43701;BME280;58809;47.984;7.964;2022-11-24T05:46:29;96847.69;;;8.25;91.40
43701;BME280;58809;47.984;7.964;2022-11-24T05:49:30;96861.69;;;8.26;92.35
43701;BME280;58809;47.984;7.964;2022-11-24T05:52:32;96850.34;;;8.25;93.47
43701;BME280;58809;47.984;7.964;2022-11-24T05:55:34;96850.03;;;8.20;94.89
43701;BME280;58809;47.984;7.964;2022-11-24T05:58:36;96845.78;;;8.19;95.33
43701;BME280;58809;47.984;7.964;2022-11-24T06:01:37;96846.59;;;8.20;95.02
43701;BME280;58809;47.984;7.964;2022-11-24T06:04:39;96848.41;;;8.19;95.57
43701;BME280;58809;47.984;7.964;2022-11-24T06:07:45;96845.41;;;8.22;95.53
43701;BME280;58809;47.984;7.964;2022-11-24T06:10:47;96861.88;;;8.24;96.02
43701;BME280;58809;47.984;7.964;2022-11-24T06:13:48;96858.66;;;8.14;96.31
43701;BME280;58809;47.984;7.964;2022-11-24T06:16:50;96838.00;;;7.95;99.97
43701;BME280;58809;47.984;7.964;2022-11-24T06:19:52;96852.03;;;7.87;100.00
43701;BME280;58809;47.984;7.964;2022-11-24T06:22:56;96852.25;;;7.77;100.00
43701;BME280;58809;47.984;7.964;2022-11-24T06:25:59;96845.03;;;7.71;100.00
43701;BME280;58809;47.984;7.964;2022-11-24T06:29:04;96858.69;;;7.75;100.00
43701;BME280;58809;47.984;7.964;2022-11-24T06:32:06;96862.81;;;7.69;100.00
43701;BME280;58809;47.984;7.964;2022-11-24T06:35:07;96860.34;;;7.76;100.00
43701;BME280;58809;47.984;7.964;2022-11-24T06:38:09;96851.25;;;7.78;100.00
43701;BME280;58809;47.984;7.964;2022-11-24T06:41:13;96859.84;;;7.80;100.00
43701;BME280;58809;47.984;7.964;2022-11-24T06:44:15;96867.72;;;7.80;100.00
43701;BME280;58809;47.984;7.964;2022-11-24T06:47:16;96868.66;;;7.87;100.00
43701;BME280;58809;47.984;7.964;2022-11-24T06:50:18;96878.63;;;8.00;100.00
43701;BME280;58809;47.984;7.964;2022-11-24T06:53:20;96874.03;;;8.02;100.00
43701;BME280;58809;47.984;7.964;2022-11-24T06:56:22;96878.31;;;8.03;100.00
43701;BME280;58809;47.984;7.964;2022-11-24T06:59:23;96875.19;;;8.00;100.00
43701;BME280;58809;47.984;7.964;2022-11-24T07:02:25;96877.53;;;7.95;100.00
43701;BME280;58809;47.984;7.964;2022-11-24T07:05:27;96912.13;;;7.92;100.00
43701;BME280;58809;47.984;7.964;2022-11-24T07:08:28;96909.03;;;7.88;100.00
43701;BME280;58809;47.984;7.964;2022-11-24T07:11:30;96914.13;;;7.81;100.00
43701;BME280;58809;47.984;7.964;2022-11-24T07:14:31;96917.47;;;7.75;100.00
43701;BME280;58809;47.984;7.964;2022-11-24T07:17:40;96918.44;;;7.74;100.00
43701;BME280;58809;47.984;7.964;2022-11-24T07:20:41;96915.81;;;7.74;100.00
43701;BME280;58809;47.984;7.964;2022-11-24T07:23:46;96924.88;;;7.71;100.00
43701;BME280;58809;47.984;7.964;2022-11-24T07:26:48;96921.44;;;7.63;100.00
43701;BME280;58809;47.984;7.964;2022-11-24T07:29:50;96913.22;;;7.66;100.00
43701;BME280;58809;47.984;7.964;2022-11-24T07:32:58;96925.03;;;7.70;100.00
43701;BME280;58809;47.984;7.964;2022-11-24T07:36:00;96928.66;;;7.77;100.00
43701;BME280;58809;47.984;7.964;2022-11-24T07:39:05;96941.28;;;7.82;100.00
43701;BME280;58809;47.984;7.964;2022-11-24T07:42:07;96950.03;;;7.82;100.00
43701;BME280;58809;47.984;7.964;2022-11-24T07:45:10;96939.19;;;7.77;100.00
43701;BME280;58809;47.984;7.964;2022-11-24T07:48:11;96948.59;;;7.71;100.00
43701;BME280;58809;47.984;7.964;2022-11-24T07:51:13;96947.56;;;7.72;100.00
43701;BME280;58809;47.984;7.964;2022-11-24T07:54:16;96951.53;;;7.77;100.00
43701;BME280;58809;47.984;7.964;2022-11-24T07:57:17;96953.34;;;7.76;100.00
43701;BME280;58809;47.984;7.964;2022-11-24T08:00:19;96955.97;;;7.76;100.00
43701;BME280;58809;47.984;7.964;2022-11-24T08:03:22;96958.75;;;7.75;100.00
43701;BME280;58809;47.984;7.964;2022-11-24T08:06:27;96955.00;;;7.69;100.00
43701;BME280;58809;47.984;7.964;2022-11-24T08:09:38;96971.81;;;7.68;100.00
43701;BME280;58809;47.984;7.964;2022-11-24T08:12:40;96977.34;;;7.81;100.00
43701;BME280;58809;47.984;7.964;2022-11-24T08:15:44;96970.56;;;7.95;100.00
43701;BME280;58809;47.984;7.964;2022-11-24T08:18:50;96977.72;;;8.18;100.00
43701;BME280;58809;47.984;7.964;2022-11-24T08:21:52;96996.19;;;8.18;100.00
43701;BME280;58809;47.984;7.964;2022-11-24T08:24:53;96986.13;;;8.21;100.00
43701;BME280;58809;47.984;7.964;2022-11-24T08:27:55;96993.97;;;8.29;100.00
43701;BME280;58809;47.984;7.964;2022-11-24T08:31:07;96999.56;;;8.43;100.00
43701;BME280;58809;47.984;7.964;2022-11-24T08:34:09;96995.25;;;8.50;100.00
43701;BME280;58809;47.984;7.964;2022-11-24T08:37:10;96993.72;;;8.56;100.00
43701;BME280;58809;47.984;7.964;2022-11-24T08:40:13;96995.16;;;8.66;100.00
43701;BME280;58809;47.984;7.964;2022-11-24T08:43:14;96998.47;;;8.60;100.00
43701;BME280;58809;47.984;7.964;2022-11-24T08:46:17;97007.09;;;8.54;100.00
43701;BME280;58809;47.984;7.964;2022-11-24T08:49:22;97005.59;;;8.52;100.00
43701;BME280;58809;47.984;7.964;2022-11-24T08:52:30;97006.03;;;8.63;100.00
43701;BME280;58809;47.984;7.964;2022-11-24T08:55:38;97010.63;;;8.70;100.00
43701;BME280;58809;47.984;7.964;2022-11-24T08:58:47;97017.22;;;8.74;99.35
43701;BME280;58809;47.984;7.964;2022-11-24T09:01:51;97021.78;;;8.80;98.69
43701;BME280;58809;47.984;7.964;2022-11-24T09:04:55;97025.53;;;8.85;96.87
43701;BME280;58809;47.984;7.964;2022-11-24T09:07:57;97032.41;;;8.95;96.25
43701;BME280;58809;47.984;7.964;2022-11-24T09:11:01;97041.59;;;8.99;95.50
43701;BME280;58809;47.984;7.964;2022-11-24T09:14:03;97045.56;;;9.03;95.83
43701;BME280;58809;47.984;7.964;2022-11-24T09:17:04;97048.06;;;9.19;95.40
43701;BME280;58809;47.984;7.964;2022-11-24T09:20:06;97052.13;;;9.30;93.87
43701;BME280;58809;47.984;7.964;2022-11-24T09:23:08;97051.72;;;9.41;93.36
43701;BME280;58809;47.984;7.964;2022-11-24T09:26:12;97058.72;;;9.34;92.02
43701;BME280;58809;47.984;7.964;2022-11-24T09:29:14;97071.31;;;9.24;92.37
43701;BME280;58809;47.984;7.964;2022-11-24T09:32:16;97061.56;;;9.24;91.99
43701;BME280;58809;47.984;7.964;2022-11-24T09:35:17;97067.91;;;9.38;91.66
43701;BME280;58809;47.984;7.964;2022-11-24T09:38:19;97078.56;;;9.68;90.21
43701;BME280;58809;47.984;7.964;2022-11-24T09:48:25;97087.75;;;9.72;86.78
43701;BME280;58809;47.984;7.964;2022-11-24T09:51:30;97097.66;;;9.78;86.79
43701;BME280;58809;47.984;7.964;2022-11-24T09:54:33;97091.81;;;9.83;86.82
43701;BME280;58809;47.984;7.964;2022-11-24T09:57:37;97089.16;;;9.83;85.80
43701;BME280;58809;47.984;7.964;2022-11-24T10:00:42;97094.47;;;9.98;85.28
43701;BME280;58809;47.984;7.964;2022-11-24T10:03:49;97100.44;;;10.15;84.40
43701;BME280;58809;47.984;7.964;2022-11-24T10:07:28;97097.97;;;10.13;84.18
43701;BME280;58809;47.984;7.964;2022-11-24T10:10:55;97101.59;;;10.12;82.45
43701;BME280;58809;47.984;7.964;2022-11-24T10:20:27;97103.44;;;10.27;81.35
43701;BME280;58809;47.984;7.964;2022-11-24T10:27:21;97098.00;;;10.73;78.99
43701;BME280;58809;47.984;7.964;2022-11-24T10:30:24;97094.16;;;10.90;78.42
43701;BME280;58809;47.984;7.964;2022-11-24T10:33:26;97110.72;;;11.14;76.67
43701;BME280;58809;47.984;7.964;2022-11-24T10:43:17;97117.13;;;11.26;74.71
43701;BME280;58809;47.984;7.964;2022-11-24T10:46:25;97101.66;;;11.45;73.61
43701;BME280;58809;47.984;7.964;2022-11-24T10:49:29;97120.16;;;11.60;72.17
43701;BME280;58809;47.984;7.964;2022-11-24T10:52:40;97094.63;;;11.15;71.68
43701;BME280;58809;47.984;7.964;2022-11-24T10:59:37;97098.31;;;11.00;73.10
43701;BME280;58809;47.984;7.964;2022-11-24T11:02:39;97101.28;;;10.90;71.81
43701;BME280;58809;47.984;7.964;2022-11-24T11:05:43;97093.50;;;10.88;72.00
43701;BME280;58809;47.984;7.964;2022-11-24T11:08:48;97098.69;;;10.96;72.58
43701;BME280;58809;47.984;7.964;2022-11-24T11:11:52;97104.63;;;10.98;71.75
43701;BME280;58809;47.984;7.964;2022-11-24T11:14:53;97098.63;;;10.90;70.96
43701;BME280;58809;47.984;7.964;2022-11-24T11:17:57;97091.91;;;11.09;70.60
43701;BME280;58809;47.984;7.964;2022-11-24T11:21:00;97112.50;;;11.28;68.83
43701;BME280;58809;47.984;7.964;2022-11-24T11:24:07;97104.16;;;11.31;69.21
43701;BME280;58809;47.984;7.964;2022-11-24T11:30:21;97109.47;;;11.53;68.34
43701;BME280;58809;47.984;7.964;2022-11-24T11:33:53;97124.50;;;11.67;67.84
43701;BME280;58809;47.984;7.964;2022-11-24T11:37:16;97113.94;;;11.74;67.06
43701;BME280;58809;47.984;7.964;2022-11-24T11:40:23;97112.75;;;11.55;67.54
43701;BME280;58809;47.984;7.964;2022-11-24T11:43:27;97106.81;;;11.31;68.56
43701;BME280;58809;47.984;7.964;2022-11-24T11:46:31;97101.75;;;11.15;69.37
43701;BME280;58809;47.984;7.964;2022-11-24T11:49:36;97112.25;;;11.23;69.22
43701;BME280;58809;47.984;7.964;2022-11-24T11:56:29;97118.88;;;11.77;67.63
43701;BME280;58809;47.984;7.964;2022-11-24T11:59:52;97125.38;;;11.74;67.95
43701;BME280;58809;47.984;7.964;2022-11-24T12:17:01;97126.97;;;11.11;69.17
43701;BME280;58809;47.984;7.964;2022-11-24T12:20:18;97131.91;;;11.35;68.42
43701;BME280;58809;47.984;7.964;2022-11-24T12:26:49;97141.59;;;11.07;68.34
43701;BME280;58809;47.984;7.964;2022-11-24T12:39:43;97133.81;;;11.42;68.90
43701;BME280;58809;47.984;7.964;2022-11-24T12:49:34;97111.63;;;11.06;69.56
43701;BME280;58809;47.984;7.964;2022-11-24T12:52:50;97118.75;;;11.06;70.36
43701;BME280;58809;47.984;7.964;2022-11-24T12:56:06;97118.13;;;11.04;69.82
43701;BME280;58809;47.984;7.964;2022-11-24T13:02:48;97112.28;;;11.08;69.56
43701;BME280;58809;47.984;7.964;2022-11-24T13:06:10;97107.38;;;11.27;68.85
43701;BME280;58809;47.984;7.964;2022-11-24T13:09:14;97112.56;;;11.35;68.73
43701;BME280;58809;47.984;7.964;2022-11-24T13:12:15;97108.91;;;11.36;68.62
43701;BME280;58809;47.984;7.964;2022-11-24T13:15:17;97108.91;;;11.36;68.64
43701;BME280;58809;47.984;7.964;2022-11-24T13:19:06;97108.69;;;11.16;69.09
43701;BME280;58809;47.984;7.964;2022-11-24T13:22:14;97115.75;;;11.09;68.84
43701;BME280;58809;47.984;7.964;2022-11-24T13:25:22;97106.03;;;11.16;68.93
43701;BME280;58809;47.984;7.964;2022-11-24T13:28:56;97105.41;;;11.14;67.13
43701;BME280;58809;47.984;7.964;2022-11-24T13:35:15;97113.41;;;11.21;67.63
43701;BME280;58809;47.984;7.964;2022-11-24T13:38:38;97112.88;;;11.25;66.40
43701;BME280;58809;47.984;7.964;2022-11-24T13:44:47;97107.91;;;11.59;66.42
43701;BME280;58809;47.984;7.964;2022-11-24T13:47:49;97117.63;;;11.73;65.79
43701;BME280;58809;47.984;7.964;2022-11-24T13:53:56;97111.25;;;12.80;61.46
43701;BME280;58809;47.984;7.964;2022-11-24T13:57:34;97112.06;;;12.18;63.35
43701;BME280;58809;47.984;7.964;2022-11-24T14:07:31;97124.25;;;12.05;64.30
43701;BME280;58809;47.984;7.964;2022-11-24T14:10:36;97117.44;;;11.96;64.23
43701;BME280;58809;47.984;7.964;2022-11-24T14:13:38;97111.41;;;11.87;64.63
43701;BME280;58809;47.984;7.964;2022-11-24T14:16:39;97112.34;;;12.01;65.10
43701;BME280;58809;47.984;7.964;2022-11-24T14:19:46;97109.69;;;11.94;64.84
43701;BME280;58809;47.984;7.964;2022-11-24T14:23:19;97106.75;;;11.89;64.60
43701;BME280;58809;47.984;7.964;2022-11-24T14:26:22;97104.88;;;11.62;65.55
43701;BME280;58809;47.984;7.964;2022-11-24T14:29:24;97110.34;;;11.39;65.49
43701;BME280;58809;47.984;7.964;2022-11-24T14:32:28;97105.03;;;11.17;66.22
43701;BME280;58809;47.984;7.964;2022-11-24T14:35:34;97103.31;;;11.09;66.80
43701;BME280;58809;47.984;7.964;2022-11-24T14:38:36;97104.69;;;11.05;66.92
43701;BME280;58809;47.984;7.964;2022-11-24T14:41:37;97105.69;;;11.04;67.38
43701;BME280;58809;47.984;7.964;2022-11-24T14:47:43;97096.97;;;11.25;66.70
43701;BME280;58809;47.984;7.964;2022-11-24T14:50:45;97091.22;;;11.22;66.89
43701;BME280;58809;47.984;7.964;2022-11-24T14:54:14;97084.69;;;11.17;66.29
43701;BME280;58809;47.984;7.964;2022-11-24T14:57:36;97084.16;;;11.07;66.65
43701;BME280;58809;47.984;7.964;2022-11-24T15:00:38;97085.66;;;11.16;67.03
43701;BME280;58809;47.984;7.964;2022-11-24T15:03:39;97073.09;;;11.04;67.19
43701;BME280;58809;47.984;7.964;2022-11-24T15:06:43;97070.88;;;10.86;68.04
43701;BME280;58809;47.984;7.964;2022-11-24T15:12:57;97074.22;;;10.43;69.45
43701;BME280;58809;47.984;7.964;2022-11-24T15:16:21;97076.72;;;10.21;70.24
43701;BME280;58809;47.984;7.964;2022-11-24T15:19:28;97062.88;;;10.05;71.44
43701;BME280;58809;47.984;7.964;2022-11-24T15:22:33;97058.47;;;9.82;71.58
43701;BME280;58809;47.984;7.964;2022-11-24T15:25:35;97057.78;;;9.65;72.81
43701;BME280;58809;47.984;7.964;2022-11-24T15:28:36;97055.00;;;9.43;74.15
43701;BME280;58809;47.984;7.964;2022-11-24T15:31:39;97049.38;;;9.23;76.92
43701;BME280;58809;47.984;7.964;2022-11-24T15:34:41;97059.41;;;9.05;78.75
43701;BME280;58809;47.984;7.964;2022-11-24T15:37:43;97055.38;;;8.86;80.88
43701;BME280;58809;47.984;7.964;2022-11-24T15:40:46;97067.19;;;8.67;82.72
43701;BME280;58809;47.984;7.964;2022-11-24T15:43:48;97065.47;;;8.43;84.29
43701;BME280;58809;47.984;7.964;2022-11-24T15:46:49;97071.59;;;8.27;86.29
43701;BME280;58809;47.984;7.964;2022-11-24T15:50:20;97075.75;;;8.13;88.29
43701;BME280;58809;47.984;7.964;2022-11-24T15:56:41;97078.75;;;7.94;90.56
43701;BME280;58809;47.984;7.964;2022-11-24T15:59:44;97087.34;;;7.79;91.66
43701;BME280;58809;47.984;7.964;2022-11-24T16:02:48;97089.97;;;7.71;93.17
43701;BME280;58809;47.984;7.964;2022-11-24T16:05:56;97095.25;;;7.63;94.14
43701;BME280;58809;47.984;7.964;2022-11-24T16:08:58;97098.72;;;7.55;95.52
43701;BME280;58809;47.984;7.964;2022-11-24T16:12:00;97098.84;;;7.45;97.13
43701;BME280;58809;47.984;7.964;2022-11-24T16:15:04;97086.66;;;7.36;97.04
43701;BME280;58809;47.984;7.964;2022-11-24T16:18:06;97102.97;;;7.40;97.99
43701;BME280;58809;47.984;7.964;2022-11-24T16:21:10;97110.38;;;7.28;98.35
43701;BME280;58809;47.984;7.964;2022-11-24T16:24:18;97108.88;;;7.17;98.78
43701;BME280;58809;47.984;7.964;2022-11-24T16:27:22;97109.84;;;7.08;99.25
43701;BME280;58809;47.984;7.964;2022-11-24T16:30:24;97103.88;;;6.98;99.91
43701;BME280;58809;47.984;7.964;2022-11-24T16:33:27;97117.84;;;6.90;100.00
43701;BME280;58809;47.984;7.964;2022-11-24T16:36:29;97111.56;;;6.83;100.00
43701;BME280;58809;47.984;7.964;2022-11-24T16:39:31;97115.81;;;6.75;100.00
43701;BME280;58809;47.984;7.964;2022-11-24T16:42:32;97114.28;;;6.65;100.00
43701;BME280;58809;47.984;7.964;2022-11-24T16:45:34;97103.78;;;6.65;100.00
43701;BME280;58809;47.984;7.964;2022-11-24T16:48:41;97102.59;;;6.59;100.00
43701;BME280;58809;47.984;7.964;2022-11-24T16:51:43;97107.53;;;6.54;100.00
43701;BME280;58809;47.984;7.964;2022-11-24T16:54:45;97111.13;;;6.53;100.00
43701;BME280;58809;47.984;7.964;2022-11-24T16:57:48;97116.69;;;6.50;100.00
43701;BME280;58809;47.984;7.964;2022-11-24T17:00:49;97126.56;;;6.48;100.00
43701;BME280;58809;47.984;7.964;2022-11-24T17:03:51;97137.41;;;6.45;100.00
43701;BME280;58809;47.984;7.964;2022-11-24T17:06:56;97130.75;;;6.32;100.00
43701;BME280;58809;47.984;7.964;2022-11-24T17:09:58;97135.50;;;6.29;100.00
43701;BME280;58809;47.984;7.964;2022-11-24T17:13:01;97136.94;;;6.23;100.00
43701;BME280;58809;47.984;7.964;2022-11-24T17:16:04;97123.44;;;6.18;100.00
43701;BME280;58809;47.984;7.964;2022-11-24T17:19:07;97114.38;;;6.12;100.00
43701;BME280;58809;47.984;7.964;2022-11-24T17:22:08;97112.38;;;6.06;100.00
43701;BME280;58809;47.984;7.964;2022-11-24T17:25:10;97116.28;;;6.02;100.00
43701;BME280;58809;47.984;7.964;2022-11-24T17:28:11;97114.28;;;5.96;100.00
43701;BME280;58809;47.984;7.964;2022-11-24T17:31:30;97110.66;;;5.97;100.00
43701;BME280;58809;47.984;7.964;2022-11-24T17:34:32;97107.47;;;5.93;100.00
43701;BME280;58809;47.984;7.964;2022-11-24T17:37:36;97113.34;;;5.87;100.00
43701;BME280;58809;47.984;7.964;2022-11-24T17:40:37;97109.03;;;5.78;100.00
43701;BME280;58809;47.984;7.964;2022-11-24T17:43:39;97116.84;;;5.70;100.00
43701;BME280;58809;47.984;7.964;2022-11-24T17:46:41;97113.19;;;5.63;100.00
43701;BME280;58809;47.984;7.964;2022-11-24T17:49:42;97113.63;;;5.58;100.00
43701;BME280;58809;47.984;7.964;2022-11-24T17:52:44;97101.94;;;5.52;100.00
43701;BME280;58809;47.984;7.964;2022-11-24T17:55:46;97109.91;;;5.61;100.00
43701;BME280;58809;47.984;7.964;2022-11-24T17:58:52;97093.91;;;5.54;100.00